sensor_id;sensor_type;location;lat;lon;timestamp;P1;durP1;ratioP1;P2;durP2;ratioP2
68792;SDS011;55778;54.346;10.210;2023-02-16T00:01:25;61.10;;;24.05;;
68792;SDS011;55778;54.346;10.210;2023-02-16T00:03:54;58.15;;;23.45;;
68792;SDS011;55778;54.346;10.210;2023-02-16T00:06:21;61.35;;;23.67;;
68792;SDS011;55778;54.346;10.210;2023-02-16T00:08:52;58.58;;;24.33;;
68792;SDS011;55778;54.346;10.210;2023-02-16T00:11:30;59.53;;;23.20;;
68792;SDS011;55778;54.346;10.210;2023-02-16T00:14:17;59.10;;;23.60;;
68792;SDS011;55778;54.346;10.210;2023-02-16T00:16:46;60.65;;;23.52;;
68792;SDS011;55778;54.346;10.210;2023-02-16T00:21:42;65.30;;;25.13;;
68792;SDS011;55778;54.346;10.210;2023-02-16T00:24:07;66.72;;;25.45;;
68792;SDS011;55778;54.346;10.210;2023-02-16T00:26:33;56.83;;;23.67;;
68792;SDS011;55778;54.346;10.210;2023-02-16T00:28:59;55.80;;;22.05;;
68792;SDS011;55778;54.346;10.210;2023-02-16T00:31:25;65.25;;;25.70;;
68792;SDS011;55778;54.346;10.210;2023-02-16T00:33:53;57.80;;;24.75;;
68792;SDS011;55778;54.346;10.210;2023-02-16T00:36:19;50.45;;;23.35;;
68792;SDS011;55778;54.346;10.210;2023-02-16T00:38:45;50.22;;;20.98;;
68792;SDS011;55778;54.346;10.210;2023-02-16T00:41:15;62.55;;;24.92;;
68792;SDS011;55778;54.346;10.210;2023-02-16T00:44:12;62.13;;;24.45;;
68792;SDS011;55778;54.346;10.210;2023-02-16T00:46:41;61.30;;;24.25;;
68792;SDS011;55778;54.346;10.210;2023-02-16T00:49:11;63.17;;;25.05;;
68792;SDS011;55778;54.346;10.210;2023-02-16T00:51:38;62.67;;;25.10;;
68792;SDS011;55778;54.346;10.210;2023-02-16T00:54:04;64.93;;;26.10;;
68792;SDS011;55778;54.346;10.210;2023-02-16T00:56:29;64.30;;;25.45;;
68792;SDS011;55778;54.346;10.210;2023-02-16T00:58:57;65.18;;;25.42;;
68792;SDS011;55778;54.346;10.210;2023-02-16T01:01:24;62.70;;;26.02;;
68792;SDS011;55778;54.346;10.210;2023-02-16T01:03:53;65.32;;;25.85;;
68792;SDS011;55778;54.346;10.210;2023-02-16T01:06:18;65.45;;;26.63;;
68792;SDS011;55778;54.346;10.210;2023-02-16T01:09:10;65.25;;;24.63;;
68792;SDS011;55778;54.346;10.210;2023-02-16T01:11:56;62.33;;;25.88;;
68792;SDS011;55778;54.346;10.210;2023-02-16T01:14:22;64.20;;;25.55;;
68792;SDS011;55778;54.346;10.210;2023-02-16T01:16:48;59.78;;;25.30;;
68792;SDS011;55778;54.346;10.210;2023-02-16T01:19:13;66.80;;;25.80;;
68792;SDS011;55778;54.346;10.210;2023-02-16T01:21:39;61.00;;;24.20;;
68792;SDS011;55778;54.346;10.210;2023-02-16T01:24:04;64.32;;;24.63;;
68792;SDS011;55778;54.346;10.210;2023-02-16T01:26:31;59.25;;;23.40;;
68792;SDS011;55778;54.346;10.210;2023-02-16T01:29:01;65.18;;;26.38;;
68792;SDS011;55778;54.346;10.210;2023-02-16T01:31:26;61.47;;;24.50;;
68792;SDS011;55778;54.346;10.210;2023-02-16T01:33:51;65.20;;;24.42;;
68792;SDS011;55778;54.346;10.210;2023-02-16T01:36:25;60.00;;;25.85;;
68792;SDS011;55778;54.346;10.210;2023-02-16T01:38:56;63.10;;;27.20;;
68792;SDS011;55778;54.346;10.210;2023-02-16T01:44:01;69.80;;;26.83;;
68792;SDS011;55778;54.346;10.210;2023-02-16T01:46:38;64.18;;;27.40;;
68792;SDS011;55778;54.346;10.210;2023-02-16T01:49:13;62.38;;;24.98;;
68792;SDS011;55778;54.346;10.210;2023-02-16T16:46:40;82.25;;;30.48;;
68792;SDS011;55778;54.346;10.210;2023-02-16T16:49:10;88.78;;;35.15;;
68792;SDS011;55778;54.346;10.210;2023-02-16T16:51:38;93.63;;;36.65;;
68792;SDS011;55778;54.346;10.210;2023-02-16T16:54:05;95.15;;;35.00;;
68792;SDS011;55778;54.346;10.210;2023-02-16T16:56:53;99.50;;;36.03;;
68792;SDS011;55778;54.346;10.210;2023-02-16T16:59:18;100.97;;;35.10;;
68792;SDS011;55778;54.346;10.210;2023-02-16T17:01:44;99.32;;;37.67;;
68792;SDS011;55778;54.346;10.210;2023-02-16T17:04:11;94.93;;;35.45;;
68792;SDS011;55778;54.346;10.210;2023-02-16T17:06:37;95.20;;;36.85;;
68792;SDS011;55778;54.346;10.210;2023-02-16T17:09:02;95.38;;;37.25;;
68792;SDS011;55778;54.346;10.210;2023-02-16T17:11:29;92.03;;;35.28;;
68792;SDS011;55778;54.346;10.210;2023-02-16T17:14:12;95.93;;;36.35;;
68792;SDS011;55778;54.346;10.210;2023-02-16T17:16:45;84.60;;;33.72;;
68792;SDS011;55778;54.346;10.210;2023-02-16T17:19:15;93.07;;;37.42;;
68792;SDS011;55778;54.346;10.210;2023-02-16T17:21:41;75.93;;;26.50;;
68792;SDS011;55778;54.346;10.210;2023-02-16T17:24:07;91.13;;;35.05;;
68792;SDS011;55778;54.346;10.210;2023-02-16T17:26:34;92.25;;;34.42;;
68792;SDS011;55778;54.346;10.210;2023-02-16T17:29:00;97.90;;;36.40;;
68792;SDS011;55778;54.346;10.210;2023-02-16T17:31:31;96.53;;;35.40;;
68792;SDS011;55778;54.346;10.210;2023-02-16T17:33:57;91.97;;;35.72;;
68792;SDS011;55778;54.346;10.210;2023-02-16T17:36:24;92.65;;;36.90;;
68792;SDS011;55778;54.346;10.210;2023-02-16T17:38:51;93.20;;;35.85;;
68792;SDS011;55778;54.346;10.210;2023-02-16T17:41:21;101.15;;;37.95;;
68792;SDS011;55778;54.346;10.210;2023-02-16T17:43:51;95.57;;;35.30;;
68792;SDS011;55778;54.346;10.210;2023-02-16T17:46:18;100.78;;;37.25;;
68792;SDS011;55778;54.346;10.210;2023-02-16T17:48:44;101.22;;;38.38;;
68792;SDS011;55778;54.346;10.210;2023-02-16T17:51:14;98.43;;;36.50;;
68792;SDS011;55778;54.346;10.210;2023-02-16T17:53:41;104.15;;;35.05;;
68792;SDS011;55778;54.346;10.210;2023-02-16T17:56:08;97.32;;;35.45;;
68792;SDS011;55778;54.346;10.210;2023-02-16T17:58:35;101.45;;;38.35;;
68792;SDS011;55778;54.346;10.210;2023-02-16T18:01:03;89.72;;;33.65;;
68792;SDS011;55778;54.346;10.210;2023-02-16T18:03:29;92.30;;;36.78;;
68792;SDS011;55778;54.346;10.210;2023-02-16T18:05:55;91.20;;;35.38;;
68792;SDS011;55778;54.346;10.210;2023-02-16T18:08:20;96.25;;;35.95;;
68792;SDS011;55778;54.346;10.210;2023-02-16T18:10:47;93.50;;;36.90;;
68792;SDS011;55778;54.346;10.210;2023-02-16T18:13:15;95.97;;;36.40;;
68792;SDS011;55778;54.346;10.210;2023-02-16T18:15:42;92.53;;;37.38;;
68792;SDS011;55778;54.346;10.210;2023-02-16T18:18:12;87.65;;;36.13;;
68792;SDS011;55778;54.346;10.210;2023-02-16T18:20:39;88.50;;;35.05;;
68792;SDS011;55778;54.346;10.210;2023-02-16T18:23:05;88.95;;;34.55;;
68792;SDS011;55778;54.346;10.210;2023-02-16T18:25:31;89.28;;;35.60;;
68792;SDS011;55778;54.346;10.210;2023-02-16T18:27:57;91.88;;;35.78;;
68792;SDS011;55778;54.346;10.210;2023-02-16T18:30:23;87.10;;;34.22;;
68792;SDS011;55778;54.346;10.210;2023-02-16T18:32:48;88.97;;;36.05;;
68792;SDS011;55778;54.346;10.210;2023-02-16T18:35:14;96.22;;;36.70;;
68792;SDS011;55778;54.346;10.210;2023-02-16T18:37:41;92.78;;;36.38;;
68792;SDS011;55778;54.346;10.210;2023-02-16T18:40:08;89.60;;;35.85;;
68792;SDS011;55778;54.346;10.210;2023-02-16T18:42:35;92.88;;;36.20;;
68792;SDS011;55778;54.346;10.210;2023-02-16T18:45:04;89.80;;;36.42;;
68792;SDS011;55778;54.346;10.210;2023-02-16T18:47:30;96.30;;;37.05;;
68792;SDS011;55778;54.346;10.210;2023-02-16T18:49:55;94.15;;;35.38;;
68792;SDS011;55778;54.346;10.210;2023-02-16T18:52:21;96.25;;;35.22;;
68792;SDS011;55778;54.346;10.210;2023-02-16T18:54:47;94.57;;;34.83;;
68792;SDS011;55778;54.346;10.210;2023-02-16T18:57:13;98.65;;;36.60;;
68792;SDS011;55778;54.346;10.210;2023-02-16T18:59:39;94.30;;;35.72;;
68792;SDS011;55778;54.346;10.210;2023-02-16T19:02:05;88.32;;;33.45;;
68792;SDS011;55778;54.346;10.210;2023-02-16T19:04:30;97.63;;;36.95;;
68792;SDS011;55778;54.346;10.210;2023-02-16T19:06:56;93.25;;;35.55;;
68792;SDS011;55778;54.346;10.210;2023-02-16T19:09:22;92.93;;;33.67;;
68792;SDS011;55778;54.346;10.210;2023-02-16T19:11:48;97.25;;;34.97;;
68792;SDS011;55778;54.346;10.210;2023-02-16T19:14:14;101.57;;;37.95;;
68792;SDS011;55778;54.346;10.210;2023-02-16T19:16:42;106.38;;;37.25;;
68792;SDS011;55778;54.346;10.210;2023-02-16T19:19:07;89.50;;;36.90;;
68792;SDS011;55778;54.346;10.210;2023-02-16T19:21:33;94.65;;;35.67;;
68792;SDS011;55778;54.346;10.210;2023-02-16T19:23:58;94.15;;;34.33;;
68792;SDS011;55778;54.346;10.210;2023-02-16T19:26:24;96.75;;;34.33;;
68792;SDS011;55778;54.346;10.210;2023-02-16T19:28:50;96.03;;;35.65;;
68792;SDS011;55778;54.346;10.210;2023-02-16T19:31:21;93.15;;;36.53;;
68792;SDS011;55778;54.346;10.210;2023-02-16T19:33:52;98.22;;;36.65;;
68792;SDS011;55778;54.346;10.210;2023-02-16T19:36:19;96.28;;;36.53;;
68792;SDS011;55778;54.346;10.210;2023-02-16T19:38:45;95.00;;;33.03;;
68792;SDS011;55778;54.346;10.210;2023-02-16T19:41:13;92.90;;;35.05;;
68792;SDS011;55778;54.346;10.210;2023-02-16T19:43:49;80.43;;;29.75;;
68792;SDS011;55778;54.346;10.210;2023-02-16T19:46:15;97.15;;;35.88;;
68792;SDS011;55778;54.346;10.210;2023-02-16T19:48:41;95.45;;;35.38;;
68792;SDS011;55778;54.346;10.210;2023-02-16T19:51:07;96.70;;;35.00;;
68792;SDS011;55778;54.346;10.210;2023-02-16T19:53:34;86.38;;;33.53;;
68792;SDS011;55778;54.346;10.210;2023-02-16T19:56:08;87.95;;;33.00;;
68792;SDS011;55778;54.346;10.210;2023-02-16T19:58:36;77.50;;;31.73;;
68792;SDS011;55778;54.346;10.210;2023-02-16T20:01:05;65.28;;;26.77;;
68792;SDS011;55778;54.346;10.210;2023-02-16T20:03:34;79.05;;;30.65;;
68792;SDS011;55778;54.346;10.210;2023-02-16T20:06:09;76.45;;;30.17;;
68792;SDS011;55778;54.346;10.210;2023-02-16T20:08:46;85.28;;;31.52;;
68792;SDS011;55778;54.346;10.210;2023-02-16T20:11:12;78.32;;;31.20;;
68792;SDS011;55778;54.346;10.210;2023-02-16T20:13:39;75.95;;;30.95;;
68792;SDS011;55778;54.346;10.210;2023-02-16T20:16:05;68.90;;;28.25;;
68792;SDS011;55778;54.346;10.210;2023-02-16T20:18:32;65.38;;;26.20;;
68792;SDS011;55778;54.346;10.210;2023-02-16T20:21:02;64.03;;;26.17;;
68792;SDS011;55778;54.346;10.210;2023-02-16T20:23:35;74.55;;;27.48;;
68792;SDS011;55778;54.346;10.210;2023-02-16T20:26:15;72.80;;;26.38;;
68792;SDS011;55778;54.346;10.210;2023-02-16T20:28:55;67.50;;;27.70;;
68792;SDS011;55778;54.346;10.210;2023-02-16T20:31:46;69.28;;;28.45;;
68792;SDS011;55778;54.346;10.210;2023-02-16T20:34:29;46.00;;;18.85;;
68792;SDS011;55778;54.346;10.210;2023-02-16T20:36:56;62.10;;;25.52;;
68792;SDS011;55778;54.346;10.210;2023-02-16T20:39:22;67.20;;;26.10;;
68792;SDS011;55778;54.346;10.210;2023-02-16T20:41:48;62.95;;;24.55;;
68792;SDS011;55778;54.346;10.210;2023-02-16T20:44:13;64.28;;;25.67;;
68792;SDS011;55778;54.346;10.210;2023-02-16T20:46:39;61.60;;;25.40;;
68792;SDS011;55778;54.346;10.210;2023-02-16T20:49:05;45.45;;;20.90;;
68792;SDS011;55778;54.346;10.210;2023-02-16T20:51:31;64.80;;;24.08;;
68792;SDS011;55778;54.346;10.210;2023-02-16T20:53:57;58.65;;;22.60;;
68792;SDS011;55778;54.346;10.210;2023-02-16T20:56:25;47.83;;;20.70;;
68792;SDS011;55778;54.346;10.210;2023-02-16T20:58:52;57.03;;;22.27;;
68792;SDS011;55778;54.346;10.210;2023-02-16T21:03:46;50.95;;;19.67;;
68792;SDS011;55778;54.346;10.210;2023-02-16T21:06:11;53.67;;;20.95;;
68792;SDS011;55778;54.346;10.210;2023-02-16T21:08:37;53.80;;;21.55;;
68792;SDS011;55778;54.346;10.210;2023-02-16T21:11:03;64.95;;;26.60;;
68792;SDS011;55778;54.346;10.210;2023-02-16T21:13:28;58.90;;;22.67;;
68792;SDS011;55778;54.346;10.210;2023-02-16T21:15:54;55.13;;;23.88;;
68792;SDS011;55778;54.346;10.210;2023-02-16T21:18:19;49.80;;;20.08;;
68792;SDS011;55778;54.346;10.210;2023-02-16T21:20:45;48.03;;;19.38;;
68792;SDS011;55778;54.346;10.210;2023-02-16T21:23:10;43.80;;;18.02;;
68792;SDS011;55778;54.346;10.210;2023-02-16T21:25:35;52.67;;;18.80;;
68792;SDS011;55778;54.346;10.210;2023-02-16T21:28:02;49.20;;;19.55;;
68792;SDS011;55778;54.346;10.210;2023-02-16T21:30:28;47.45;;;20.40;;
68792;SDS011;55778;54.346;10.210;2023-02-16T21:32:53;49.83;;;19.83;;
68792;SDS011;55778;54.346;10.210;2023-02-16T21:35:18;44.45;;;17.98;;
68792;SDS011;55778;54.346;10.210;2023-02-16T21:37:44;50.78;;;20.35;;
68792;SDS011;55778;54.346;10.210;2023-02-16T21:40:09;51.28;;;20.63;;
68792;SDS011;55778;54.346;10.210;2023-02-16T21:42:55;50.60;;;20.25;;
68792;SDS011;55778;54.346;10.210;2023-02-16T21:45:20;47.40;;;20.67;;
68792;SDS011;55778;54.346;10.210;2023-02-16T21:47:46;53.58;;;20.42;;
68792;SDS011;55778;54.346;10.210;2023-02-16T21:50:30;55.08;;;21.13;;
68792;SDS011;55778;54.346;10.210;2023-02-16T21:53:00;53.72;;;22.67;;
68792;SDS011;55778;54.346;10.210;2023-02-16T21:55:25;57.03;;;22.98;;
68792;SDS011;55778;54.346;10.210;2023-02-16T21:58:10;60.28;;;23.67;;
68792;SDS011;55778;54.346;10.210;2023-02-16T22:00:36;59.90;;;23.25;;
68792;SDS011;55778;54.346;10.210;2023-02-16T22:03:03;60.22;;;25.05;;
68792;SDS011;55778;54.346;10.210;2023-02-16T22:05:29;48.58;;;19.73;;
68792;SDS011;55778;54.346;10.210;2023-02-16T22:07:55;65.35;;;25.42;;
68792;SDS011;55778;54.346;10.210;2023-02-16T22:10:22;56.80;;;23.02;;
68792;SDS011;55778;54.346;10.210;2023-02-16T22:12:49;48.47;;;19.50;;
68792;SDS011;55778;54.346;10.210;2023-02-16T22:15:14;61.15;;;24.10;;
68792;SDS011;55778;54.346;10.210;2023-02-16T22:17:40;46.65;;;18.63;;
68792;SDS011;55778;54.346;10.210;2023-02-16T22:20:05;70.35;;;24.73;;
68792;SDS011;55778;54.346;10.210;2023-02-16T22:22:31;64.85;;;25.52;;
68792;SDS011;55778;54.346;10.210;2023-02-16T22:24:56;67.10;;;25.67;;
68792;SDS011;55778;54.346;10.210;2023-02-16T22:27:22;63.63;;;26.15;;
68792;SDS011;55778;54.346;10.210;2023-02-16T22:29:47;66.88;;;26.35;;
68792;SDS011;55778;54.346;10.210;2023-02-16T22:32:14;62.90;;;27.38;;
68792;SDS011;55778;54.346;10.210;2023-02-16T22:34:40;55.17;;;23.02;;
68792;SDS011;55778;54.346;10.210;2023-02-16T22:37:05;71.05;;;27.58;;
68792;SDS011;55778;54.346;10.210;2023-02-16T22:39:30;66.97;;;28.35;;
68792;SDS011;55778;54.346;10.210;2023-02-16T22:41:56;69.10;;;27.90;;
68792;SDS011;55778;54.346;10.210;2023-02-16T22:44:21;61.00;;;26.05;;
68792;SDS011;55778;54.346;10.210;2023-02-16T22:46:47;58.20;;;25.35;;
68792;SDS011;55778;54.346;10.210;2023-02-16T22:49:12;63.70;;;27.10;;
68792;SDS011;55778;54.346;10.210;2023-02-16T22:51:37;56.40;;;24.33;;
68792;SDS011;55778;54.346;10.210;2023-02-16T22:54:03;44.53;;;20.80;;
68792;SDS011;55778;54.346;10.210;2023-02-16T22:56:29;65.18;;;27.13;;
68792;SDS011;55778;54.346;10.210;2023-02-16T22:58:55;62.13;;;27.50;;
68792;SDS011;55778;54.346;10.210;2023-02-16T23:01:22;63.25;;;24.80;;
68792;SDS011;55778;54.346;10.210;2023-02-16T23:03:48;67.18;;;28.50;;
68792;SDS011;55778;54.346;10.210;2023-02-16T23:06:17;58.67;;;26.05;;
68792;SDS011;55778;54.346;10.210;2023-02-16T23:08:46;60.33;;;26.25;;
68792;SDS011;55778;54.346;10.210;2023-02-16T23:11:16;43.60;;;21.92;;
68792;SDS011;55778;54.346;10.210;2023-02-16T23:13:42;60.88;;;27.73;;
68792;SDS011;55778;54.346;10.210;2023-02-16T23:16:12;59.47;;;28.38;;
68792;SDS011;55778;54.346;10.210;2023-02-16T23:18:39;38.58;;;18.52;;
68792;SDS011;55778;54.346;10.210;2023-02-16T23:21:09;59.20;;;26.92;;
68792;SDS011;55778;54.346;10.210;2023-02-16T23:23:38;54.03;;;25.25;;
68792;SDS011;55778;54.346;10.210;2023-02-16T23:26:04;58.85;;;27.20;;
68792;SDS011;55778;54.346;10.210;2023-02-16T23:28:31;53.55;;;26.45;;
68792;SDS011;55778;54.346;10.210;2023-02-16T23:30:57;58.47;;;26.17;;
68792;SDS011;55778;54.346;10.210;2023-02-16T23:33:23;41.53;;;19.25;;
68792;SDS011;55778;54.346;10.210;2023-02-16T23:35:48;53.83;;;25.13;;
68792;SDS011;55778;54.346;10.210;2023-02-16T23:38:14;53.72;;;24.92;;
68792;SDS011;55778;54.346;10.210;2023-02-16T23:40:40;52.65;;;24.38;;
68792;SDS011;55778;54.346;10.210;2023-02-16T23:43:06;52.13;;;23.92;;
68792;SDS011;55778;54.346;10.210;2023-02-16T23:45:32;54.70;;;24.52;;
68792;SDS011;55778;54.346;10.210;2023-02-16T23:47:58;50.15;;;23.73;;
68792;SDS011;55778;54.346;10.210;2023-02-16T23:50:23;54.75;;;25.33;;
68792;SDS011;55778;54.346;10.210;2023-02-16T23:52:49;46.75;;;20.58;;
68792;SDS011;55778;54.346;10.210;2023-02-16T23:55:14;42.90;;;19.73;;
68792;SDS011;55778;54.346;10.210;2023-02-16T23:57:40;58.45;;;27.50;;
